Sunshine — WDE6618 — position and weather

sailwx.info

Track history (hours):
 
Tides and Currents Weather Stations Pressure Air Temp Water Temp Dewpoint Dewpoint Depression Visibility Wind Speed Wind Dir Waves Ship Positions

Sunshine

Owner: S/V Sunshine, Encinitas, CA. More information available from US FCC via Universal Licensing System and Coast Guard Vessel Documentation Center.

Last reported at 2018-Jun-14 23:03 UTC. Time now 2018-Jun-20 16:49 UTC.
Position N 33°24' W 118°22'.

Length 14 m.

Type: Sailing vessel. MMSI: 367382490.

Date/timePositionNaut miles runAvg speedWind from/ knotsBaromVisibWave heightAir tempDewpointWater temp
2018-Jun-14 23:03N 33°24' W 118°22'0 1.0
2018-Jun-14 22:58N 33°24' W 118°22'15 5.6
2018-Jun-14 20:22N 33°15' W 118°08'2 6.7
2018-Jun-14 20:00N 33°13' W 118°06'13 6.3
2018-Jun-14 17:52N 33°05' W 117°53'3 7.2
2018-Jun-14 17:24N 33°03' W 117°50'3 7.4
2018-Jun-14 16:58N 33°01' W 117°47'4 7.7
2018-Jun-14 16:30N 32°58' W 117°44'5 7.2
2018-Jun-14 15:51N 32°55' W 117°40'3 7.3
2018-Jun-14 15:30N 32°53' W 117°38'4 7.2
2018-Jun-14 15:00N 32°51' W 117°34'4 7.1
2018-Jun-14 14:30N 32°49' W 117°31'4 7.0
2018-Jun-14 13:59N 32°46' W 117°28'3 7.0
2018-Jun-14 13:30N 32°44' W 117°25'  
Track history (hours):
 
Tides and Currents Weather Stations Pressure Air Temp Water Temp Dewpoint Dewpoint Depression Visibility Wind Speed Wind Dir Waves Ship Positions

Sunshine

Owner: S/V Sunshine, Encinitas, CA. More information available from US FCC via Universal Licensing System and Coast Guard Vessel Documentation Center.

Last reported at 2018-Jun-14 23:03 UTC. Time now 2018-Jun-20 16:49 UTC.
Position N 33°24' W 118°22'.

Length 14 m.

Type: Sailing vessel. MMSI: 367382490.

Date/timePositionNaut miles runAvg speedWind from/ knotsBaromVisibWave heightAir tempDewpointWater temp
2018-Jun-14 23:03N 33°24' W 118°22'0 1.0
2018-Jun-14 22:58N 33°24' W 118°22'15 5.6
2018-Jun-14 20:22N 33°15' W 118°08'2 6.7
2018-Jun-14 20:00N 33°13' W 118°06'13 6.3
2018-Jun-14 17:52N 33°05' W 117°53'3 7.2
2018-Jun-14 17:24N 33°03' W 117°50'3 7.4
2018-Jun-14 16:58N 33°01' W 117°47'4 7.7
2018-Jun-14 16:30N 32°58' W 117°44'5 7.2
2018-Jun-14 15:51N 32°55' W 117°40'3 7.3
2018-Jun-14 15:30N 32°53' W 117°38'4 7.2
2018-Jun-14 15:00N 32°51' W 117°34'4 7.1
2018-Jun-14 14:30N 32°49' W 117°31'4 7.0
2018-Jun-14 13:59N 32°46' W 117°28'3 7.0
2018-Jun-14 13:30N 32°44' W 117°25'  

Dump ship's entire track history